sensor_id;sensor_type;location;lat;lon;timestamp;P1;durP1;ratioP1;P2;durP2;ratioP2
49376;SDS011;35253;34.688;33.040;2023-05-07T00:00:29;5.38;;;2.47;;
49376;SDS011;35253;34.688;33.040;2023-05-07T00:02:55;7.50;;;2.33;;
49376;SDS011;35253;34.688;33.040;2023-05-07T00:05:20;6.60;;;1.85;;
49376;SDS011;35253;34.688;33.040;2023-05-07T00:07:46;10.18;;;2.33;;
49376;SDS011;35253;34.688;33.040;2023-05-07T00:10:12;9.65;;;3.42;;
49376;SDS011;35253;34.688;33.040;2023-05-07T00:12:38;8.77;;;2.60;;
49376;SDS011;35253;34.688;33.040;2023-05-07T00:15:04;8.63;;;2.80;;
49376;SDS011;35253;34.688;33.040;2023-05-07T00:17:31;7.10;;;2.97;;
49376;SDS011;35253;34.688;33.040;2023-05-07T00:19:58;8.43;;;2.63;;
49376;SDS011;35253;34.688;33.040;2023-05-07T00:22:23;6.68;;;2.83;;
49376;SDS011;35253;34.688;33.040;2023-05-07T00:24:49;5.78;;;2.38;;
49376;SDS011;35253;34.688;33.040;2023-05-07T00:27:15;10.35;;;2.95;;
49376;SDS011;35253;34.688;33.040;2023-05-07T00:29:41;10.95;;;3.88;;
49376;SDS011;35253;34.688;33.040;2023-05-07T00:32:07;7.18;;;2.33;;
49376;SDS011;35253;34.688;33.040;2023-05-07T00:34:33;6.50;;;1.90;;
49376;SDS011;35253;34.688;33.040;2023-05-07T00:36:59;9.90;;;3.40;;
49376;SDS011;35253;34.688;33.040;2023-05-07T00:39:24;6.63;;;2.50;;
49376;SDS011;35253;34.688;33.040;2023-05-07T00:41:50;6.38;;;2.55;;
49376;SDS011;35253;34.688;33.040;2023-05-07T00:44:16;5.53;;;2.97;;
49376;SDS011;35253;34.688;33.040;2023-05-07T00:46:43;7.90;;;2.40;;
49376;SDS011;35253;34.688;33.040;2023-05-07T00:49:10;7.28;;;2.97;;
49376;SDS011;35253;34.688;33.040;2023-05-07T00:51:36;12.32;;;4.57;;
49376;SDS011;35253;34.688;33.040;2023-05-07T00:54:02;13.55;;;3.90;;
49376;SDS011;35253;34.688;33.040;2023-05-07T00:56:28;7.32;;;3.42;;
49376;SDS011;35253;34.688;33.040;2023-05-07T00:58:54;7.75;;;2.30;;
49376;SDS011;35253;34.688;33.040;2023-05-07T01:01:20;5.63;;;2.40;;
49376;SDS011;35253;34.688;33.040;2023-05-07T01:03:46;10.85;;;3.58;;
49376;SDS011;35253;34.688;33.040;2023-05-07T01:06:11;7.55;;;2.45;;
49376;SDS011;35253;34.688;33.040;2023-05-07T01:08:41;7.15;;;2.45;;
49376;SDS011;35253;34.688;33.040;2023-05-07T01:11:08;10.25;;;3.80;;
49376;SDS011;35253;34.688;33.040;2023-05-07T01:13:34;10.07;;;3.42;;
49376;SDS011;35253;34.688;33.040;2023-05-07T01:16:02;6.65;;;2.85;;
49376;SDS011;35253;34.688;33.040;2023-05-07T01:18:28;10.75;;;3.83;;
49376;SDS011;35253;34.688;33.040;2023-05-07T01:20:55;13.07;;;4.68;;
49376;SDS011;35253;34.688;33.040;2023-05-07T01:23:24;10.00;;;4.00;;
49376;SDS011;35253;34.688;33.040;2023-05-07T01:25:53;4.78;;;2.95;;
49376;SDS011;35253;34.688;33.040;2023-05-07T01:28:19;12.52;;;5.13;;
49376;SDS011;35253;34.688;33.040;2023-05-07T01:30:54;11.55;;;3.38;;
49376;SDS011;35253;34.688;33.040;2023-05-07T01:33:26;6.97;;;3.67;;
49376;SDS011;35253;34.688;33.040;2023-05-07T01:35:54;8.15;;;3.20;;
49376;SDS011;35253;34.688;33.040;2023-05-07T01:38:21;8.25;;;4.00;;
49376;SDS011;35253;34.688;33.040;2023-05-07T01:40:48;5.50;;;3.03;;
49376;SDS011;35253;34.688;33.040;2023-05-07T01:43:14;9.77;;;5.00;;
49376;SDS011;35253;34.688;33.040;2023-05-07T01:45:40;8.88;;;2.50;;
49376;SDS011;35253;34.688;33.040;2023-05-07T01:48:09;6.55;;;2.20;;
49376;SDS011;35253;34.688;33.040;2023-05-07T01:50:35;8.00;;;2.88;;
49376;SDS011;35253;34.688;33.040;2023-05-07T01:53:02;8.70;;;3.22;;
49376;SDS011;35253;34.688;33.040;2023-05-07T01:55:28;15.15;;;5.90;;
49376;SDS011;35253;34.688;33.040;2023-05-07T01:57:53;12.07;;;4.47;;
49376;SDS011;35253;34.688;33.040;2023-05-07T02:00:20;14.10;;;6.05;;
49376;SDS011;35253;34.688;33.040;2023-05-07T02:02:45;14.13;;;5.50;;
49376;SDS011;35253;34.688;33.040;2023-05-07T02:05:11;14.63;;;4.03;;
49376;SDS011;35253;34.688;33.040;2023-05-07T02:07:37;8.73;;;3.50;;
49376;SDS011;35253;34.688;33.040;2023-05-07T02:10:03;11.88;;;3.28;;
49376;SDS011;35253;34.688;33.040;2023-05-07T02:12:29;12.27;;;3.15;;
49376;SDS011;35253;34.688;33.040;2023-05-07T02:14:54;10.02;;;3.33;;
49376;SDS011;35253;34.688;33.040;2023-05-07T02:17:20;9.20;;;3.03;;
49376;SDS011;35253;34.688;33.040;2023-05-07T02:19:46;13.75;;;3.88;;
49376;SDS011;35253;34.688;33.040;2023-05-07T02:22:11;7.65;;;3.17;;
49376;SDS011;35253;34.688;33.040;2023-05-07T02:24:37;8.20;;;3.10;;
49376;SDS011;35253;34.688;33.040;2023-05-07T02:27:03;8.52;;;3.35;;
49376;SDS011;35253;34.688;33.040;2023-05-07T02:29:28;7.95;;;3.05;;
49376;SDS011;35253;34.688;33.040;2023-05-07T02:31:54;10.63;;;3.45;;
49376;SDS011;35253;34.688;33.040;2023-05-07T02:34:20;9.52;;;3.95;;
49376;SDS011;35253;34.688;33.040;2023-05-07T02:36:46;9.32;;;3.90;;
49376;SDS011;35253;34.688;33.040;2023-05-07T02:39:12;10.70;;;3.80;;
49376;SDS011;35253;34.688;33.040;2023-05-07T02:41:38;8.88;;;3.10;;
49376;SDS011;35253;34.688;33.040;2023-05-07T02:44:04;12.85;;;3.67;;
49376;SDS011;35253;34.688;33.040;2023-05-07T02:46:30;13.73;;;4.13;;
49376;SDS011;35253;34.688;33.040;2023-05-07T02:48:56;10.15;;;3.40;;
49376;SDS011;35253;34.688;33.040;2023-05-07T02:51:22;10.93;;;4.13;;
49376;SDS011;35253;34.688;33.040;2023-05-07T02:53:48;10.02;;;3.90;;
49376;SDS011;35253;34.688;33.040;2023-05-07T02:56:14;13.18;;;4.43;;
49376;SDS011;35253;34.688;33.040;2023-05-07T02:58:40;9.07;;;3.00;;
49376;SDS011;35253;34.688;33.040;2023-05-07T03:01:07;5.05;;;3.08;;
49376;SDS011;35253;34.688;33.040;2023-05-07T03:03:33;4.20;;;2.45;;
49376;SDS011;35253;34.688;33.040;2023-05-07T03:05:59;4.97;;;2.25;;
49376;SDS011;35253;34.688;33.040;2023-05-07T03:08:25;9.07;;;2.78;;
49376;SDS011;35253;34.688;33.040;2023-05-07T03:10:51;4.95;;;2.25;;
49376;SDS011;35253;34.688;33.040;2023-05-07T03:13:16;11.93;;;3.28;;
49376;SDS011;35253;34.688;33.040;2023-05-07T03:15:42;12.07;;;4.43;;
49376;SDS011;35253;34.688;33.040;2023-05-07T03:18:08;8.77;;;2.50;;
49376;SDS011;35253;34.688;33.040;2023-05-07T03:20:34;9.88;;;3.17;;
49376;SDS011;35253;34.688;33.040;2023-05-07T03:22:59;6.57;;;2.47;;
49376;SDS011;35253;34.688;33.040;2023-05-07T03:25:25;9.45;;;2.88;;
49376;SDS011;35253;34.688;33.040;2023-05-07T03:27:51;7.40;;;2.67;;
49376;SDS011;35253;34.688;33.040;2023-05-07T03:30:16;8.60;;;3.70;;
49376;SDS011;35253;34.688;33.040;2023-05-07T03:32:42;6.32;;;3.28;;
49376;SDS011;35253;34.688;33.040;2023-05-07T03:35:08;7.75;;;4.13;;
49376;SDS011;35253;34.688;33.040;2023-05-07T03:37:34;9.57;;;3.10;;
49376;SDS011;35253;34.688;33.040;2023-05-07T03:39:59;8.82;;;4.78;;
49376;SDS011;35253;34.688;33.040;2023-05-07T03:42:25;5.72;;;2.60;;
49376;SDS011;35253;34.688;33.040;2023-05-07T03:44:51;5.45;;;2.70;;
49376;SDS011;35253;34.688;33.040;2023-05-07T03:47:16;7.18;;;3.25;;
49376;SDS011;35253;34.688;33.040;2023-05-07T03:49:42;11.02;;;3.42;;
49376;SDS011;35253;34.688;33.040;2023-05-07T03:52:08;6.07;;;2.53;;
49376;SDS011;35253;34.688;33.040;2023-05-07T03:54:34;7.68;;;2.88;;
49376;SDS011;35253;34.688;33.040;2023-05-07T03:56:59;6.43;;;3.70;;
49376;SDS011;35253;34.688;33.040;2023-05-07T03:59:25;10.60;;;4.00;;
49376;SDS011;35253;34.688;33.040;2023-05-07T04:01:51;10.57;;;3.17;;
49376;SDS011;35253;34.688;33.040;2023-05-07T04:04:16;4.88;;;2.92;;
49376;SDS011;35253;34.688;33.040;2023-05-07T04:06:42;8.20;;;2.97;;
49376;SDS011;35253;34.688;33.040;2023-05-07T04:09:08;6.88;;;3.22;;
49376;SDS011;35253;34.688;33.040;2023-05-07T04:11:34;14.57;;;6.68;;
49376;SDS011;35253;34.688;33.040;2023-05-07T04:14:01;7.35;;;5.18;;
49376;SDS011;35253;34.688;33.040;2023-05-07T04:16:26;6.55;;;3.80;;
49376;SDS011;35253;34.688;33.040;2023-05-07T04:18:52;7.70;;;4.13;;
49376;SDS011;35253;34.688;33.040;2023-05-07T04:21:18;5.20;;;3.70;;
49376;SDS011;35253;34.688;33.040;2023-05-07T04:23:46;10.25;;;3.92;;
49376;SDS011;35253;34.688;33.040;2023-05-07T04:26:12;5.50;;;3.08;;
49376;SDS011;35253;34.688;33.040;2023-05-07T04:28:39;8.02;;;3.92;;
49376;SDS011;35253;34.688;33.040;2023-05-07T04:31:05;11.98;;;4.35;;
49376;SDS011;35253;34.688;33.040;2023-05-07T04:33:31;9.93;;;4.65;;
49376;SDS011;35253;34.688;33.040;2023-05-07T04:35:58;10.02;;;3.83;;
49376;SDS011;35253;34.688;33.040;2023-05-07T04:38:31;14.63;;;4.97;;
49376;SDS011;35253;34.688;33.040;2023-05-07T04:40:58;7.38;;;3.13;;
49376;SDS011;35253;34.688;33.040;2023-05-07T04:43:28;6.68;;;2.88;;
49376;SDS011;35253;34.688;33.040;2023-05-07T04:45:54;7.60;;;2.85;;
49376;SDS011;35253;34.688;33.040;2023-05-07T04:48:20;6.53;;;2.25;;
49376;SDS011;35253;34.688;33.040;2023-05-07T04:50:49;5.57;;;2.00;;
49376;SDS011;35253;34.688;33.040;2023-05-07T04:53:15;9.55;;;3.42;;
49376;SDS011;35253;34.688;33.040;2023-05-07T04:55:42;8.20;;;3.28;;
49376;SDS011;35253;34.688;33.040;2023-05-07T04:58:08;4.53;;;2.05;;
49376;SDS011;35253;34.688;33.040;2023-05-07T05:00:34;7.32;;;2.60;;
49376;SDS011;35253;34.688;33.040;2023-05-07T05:03:00;9.32;;;3.95;;
49376;SDS011;35253;34.688;33.040;2023-05-07T05:05:26;8.45;;;2.53;;
49376;SDS011;35253;34.688;33.040;2023-05-07T05:07:51;11.02;;;3.28;;
49376;SDS011;35253;34.688;33.040;2023-05-07T05:10:18;13.68;;;4.55;;
49376;SDS011;35253;34.688;33.040;2023-05-07T05:12:43;7.93;;;2.75;;
49376;SDS011;35253;34.688;33.040;2023-05-07T05:15:11;7.53;;;2.42;;
49376;SDS011;35253;34.688;33.040;2023-05-07T05:17:38;8.80;;;2.53;;
49376;SDS011;35253;34.688;33.040;2023-05-07T05:20:04;6.30;;;1.60;;
49376;SDS011;35253;34.688;33.040;2023-05-07T05:22:31;5.55;;;2.08;;
49376;SDS011;35253;34.688;33.040;2023-05-07T05:24:57;6.88;;;2.90;;
49376;SDS011;35253;34.688;33.040;2023-05-07T05:27:23;7.38;;;2.15;;
49376;SDS011;35253;34.688;33.040;2023-05-07T05:29:48;9.25;;;2.65;;
49376;SDS011;35253;34.688;33.040;2023-05-07T05:32:14;5.03;;;1.90;;
49376;SDS011;35253;34.688;33.040;2023-05-07T05:34:40;6.50;;;1.92;;
49376;SDS011;35253;34.688;33.040;2023-05-07T05:37:06;9.05;;;1.90;;
49376;SDS011;35253;34.688;33.040;2023-05-07T05:39:31;9.20;;;2.92;;
49376;SDS011;35253;34.688;33.040;2023-05-07T05:41:57;6.28;;;2.70;;
49376;SDS011;35253;34.688;33.040;2023-05-07T05:44:23;8.75;;;2.13;;
49376;SDS011;35253;34.688;33.040;2023-05-07T05:46:48;9.95;;;2.50;;
49376;SDS011;35253;34.688;33.040;2023-05-07T05:49:15;5.20;;;2.22;;
49376;SDS011;35253;34.688;33.040;2023-05-07T05:51:40;15.25;;;4.88;;
49376;SDS011;35253;34.688;33.040;2023-05-07T05:54:06;8.82;;;3.53;;
49376;SDS011;35253;34.688;33.040;2023-05-07T05:56:32;9.93;;;1.98;;
49376;SDS011;35253;34.688;33.040;2023-05-07T05:58:58;7.63;;;2.10;;
49376;SDS011;35253;34.688;33.040;2023-05-07T06:01:24;7.88;;;2.25;;
49376;SDS011;35253;34.688;33.040;2023-05-07T06:03:49;13.77;;;3.75;;
49376;SDS011;35253;34.688;33.040;2023-05-07T06:06:15;8.02;;;2.35;;
49376;SDS011;35253;34.688;33.040;2023-05-07T06:08:41;8.27;;;1.77;;
49376;SDS011;35253;34.688;33.040;2023-05-07T06:11:07;7.22;;;1.83;;
49376;SDS011;35253;34.688;33.040;2023-05-07T06:13:33;3.88;;;1.75;;
49376;SDS011;35253;34.688;33.040;2023-05-07T06:15:59;4.80;;;1.90;;
49376;SDS011;35253;34.688;33.040;2023-05-07T06:18:24;7.15;;;2.03;;
49376;SDS011;35253;34.688;33.040;2023-05-07T06:20:51;6.15;;;1.90;;
49376;SDS011;35253;34.688;33.040;2023-05-07T06:23:17;6.45;;;2.10;;
49376;SDS011;35253;34.688;33.040;2023-05-07T06:25:47;7.70;;;1.85;;
49376;SDS011;35253;34.688;33.040;2023-05-07T06:28:14;2.92;;;1.33;;
49376;SDS011;35253;34.688;33.040;2023-05-07T06:30:40;7.32;;;1.73;;
49376;SDS011;35253;34.688;33.040;2023-05-07T06:33:05;8.13;;;2.70;;
49376;SDS011;35253;34.688;33.040;2023-05-07T06:35:31;5.88;;;3.00;;
49376;SDS011;35253;34.688;33.040;2023-05-07T06:37:57;6.72;;;3.50;;
49376;SDS011;35253;34.688;33.040;2023-05-07T06:40:22;3.75;;;1.70;;
49376;SDS011;35253;34.688;33.040;2023-05-07T06:42:48;7.65;;;2.22;;
49376;SDS011;35253;34.688;33.040;2023-05-07T06:45:14;8.82;;;2.63;;
49376;SDS011;35253;34.688;33.040;2023-05-07T06:47:40;9.13;;;2.75;;
49376;SDS011;35253;34.688;33.040;2023-05-07T06:50:06;6.05;;;2.13;;
49376;SDS011;35253;34.688;33.040;2023-05-07T06:52:32;4.20;;;2.08;;
49376;SDS011;35253;34.688;33.040;2023-05-07T06:54:57;7.28;;;1.83;;
49376;SDS011;35253;34.688;33.040;2023-05-07T06:57:25;6.65;;;2.42;;
49376;SDS011;35253;34.688;33.040;2023-05-07T06:59:50;9.35;;;2.38;;
49376;SDS011;35253;34.688;33.040;2023-05-07T07:02:16;6.88;;;2.60;;
49376;SDS011;35253;34.688;33.040;2023-05-07T07:04:42;6.70;;;2.72;;
49376;SDS011;35253;34.688;33.040;2023-05-07T07:07:08;10.77;;;2.30;;
49376;SDS011;35253;34.688;33.040;2023-05-07T07:09:33;7.60;;;2.85;;
49376;SDS011;35253;34.688;33.040;2023-05-07T07:11:59;6.60;;;3.05;;
49376;SDS011;35253;34.688;33.040;2023-05-07T07:14:25;3.75;;;2.15;;
49376;SDS011;35253;34.688;33.040;2023-05-07T07:16:51;8.15;;;3.15;;
49376;SDS011;35253;34.688;33.040;2023-05-07T07:19:17;8.52;;;2.90;;
49376;SDS011;35253;34.688;33.040;2023-05-07T07:21:42;10.30;;;2.42;;
49376;SDS011;35253;34.688;33.040;2023-05-07T07:24:09;6.25;;;2.20;;
49376;SDS011;35253;34.688;33.040;2023-05-07T07:26:35;11.18;;;3.92;;
49376;SDS011;35253;34.688;33.040;2023-05-07T07:29:01;10.52;;;3.00;;
49376;SDS011;35253;34.688;33.040;2023-05-07T07:31:27;8.63;;;2.90;;
49376;SDS011;35253;34.688;33.040;2023-05-07T07:33:52;8.07;;;3.88;;
49376;SDS011;35253;34.688;33.040;2023-05-07T07:36:18;5.22;;;2.47;;
49376;SDS011;35253;34.688;33.040;2023-05-07T07:38:44;7.85;;;3.15;;
49376;SDS011;35253;34.688;33.040;2023-05-07T07:41:10;11.07;;;4.88;;
49376;SDS011;35253;34.688;33.040;2023-05-07T07:43:35;9.65;;;2.70;;
49376;SDS011;35253;34.688;33.040;2023-05-07T07:46:01;8.88;;;1.98;;
49376;SDS011;35253;34.688;33.040;2023-05-07T07:48:27;7.72;;;2.60;;
49376;SDS011;35253;34.688;33.040;2023-05-07T07:50:53;9.10;;;2.38;;
49376;SDS011;35253;34.688;33.040;2023-05-07T07:53:21;4.85;;;1.70;;
49376;SDS011;35253;34.688;33.040;2023-05-07T07:55:47;7.35;;;2.92;;
49376;SDS011;35253;34.688;33.040;2023-05-07T07:58:13;8.23;;;4.38;;
49376;SDS011;35253;34.688;33.040;2023-05-07T08:00:38;5.85;;;3.03;;
49376;SDS011;35253;34.688;33.040;2023-05-07T08:03:04;7.53;;;3.72;;
49376;SDS011;35253;34.688;33.040;2023-05-07T08:05:31;5.57;;;2.70;;
49376;SDS011;35253;34.688;33.040;2023-05-07T08:07:57;13.23;;;3.83;;
49376;SDS011;35253;34.688;33.040;2023-05-07T08:10:23;7.78;;;4.13;;
49376;SDS011;35253;34.688;33.040;2023-05-07T08:12:49;9.20;;;4.20;;
49376;SDS011;35253;34.688;33.040;2023-05-07T08:15:15;6.07;;;2.80;;
49376;SDS011;35253;34.688;33.040;2023-05-07T08:17:41;5.68;;;2.33;;
49376;SDS011;35253;34.688;33.040;2023-05-07T08:20:07;10.07;;;4.45;;
49376;SDS011;35253;34.688;33.040;2023-05-07T08:22:34;11.90;;;6.63;;
49376;SDS011;35253;34.688;33.040;2023-05-07T08:25:00;10.20;;;3.35;;
49376;SDS011;35253;34.688;33.040;2023-05-07T08:27:26;8.00;;;3.45;;
49376;SDS011;35253;34.688;33.040;2023-05-07T08:29:52;6.55;;;3.28;;
49376;SDS011;35253;34.688;33.040;2023-05-07T08:32:18;7.53;;;2.25;;
49376;SDS011;35253;34.688;33.040;2023-05-07T08:34:44;14.48;;;3.67;;
49376;SDS011;35253;34.688;33.040;2023-05-07T08:37:09;5.93;;;2.83;;
49376;SDS011;35253;34.688;33.040;2023-05-07T08:39:35;5.57;;;2.47;;
49376;SDS011;35253;34.688;33.040;2023-05-07T08:42:01;7.90;;;3.67;;
49376;SDS011;35253;34.688;33.040;2023-05-07T08:44:33;10.10;;;2.80;;
49376;SDS011;35253;34.688;33.040;2023-05-07T08:47:03;8.32;;;3.53;;
49376;SDS011;35253;34.688;33.040;2023-05-07T08:49:33;10.65;;;3.30;;
49376;SDS011;35253;34.688;33.040;2023-05-07T08:51:59;7.82;;;3.17;;
49376;SDS011;35253;34.688;33.040;2023-05-07T08:54:25;6.95;;;2.75;;
49376;SDS011;35253;34.688;33.040;2023-05-07T08:56:52;5.30;;;2.85;;
49376;SDS011;35253;34.688;33.040;2023-05-07T08:59:18;8.68;;;3.17;;
49376;SDS011;35253;34.688;33.040;2023-05-07T09:01:44;5.07;;;2.72;;
49376;SDS011;35253;34.688;33.040;2023-05-07T09:04:10;3.30;;;2.08;;
49376;SDS011;35253;34.688;33.040;2023-05-07T09:06:38;16.33;;;5.22;;
49376;SDS011;35253;34.688;33.040;2023-05-07T09:09:07;6.80;;;2.25;;
49376;SDS011;35253;34.688;33.040;2023-05-07T09:11:33;9.38;;;3.13;;
49376;SDS011;35253;34.688;33.040;2023-05-07T09:13:59;14.13;;;5.80;;
49376;SDS011;35253;34.688;33.040;2023-05-07T09:16:34;8.65;;;4.53;;
49376;SDS011;35253;34.688;33.040;2023-05-07T09:19:00;11.02;;;7.68;;
49376;SDS011;35253;34.688;33.040;2023-05-07T09:21:26;9.07;;;2.63;;
49376;SDS011;35253;34.688;33.040;2023-05-07T09:23:53;7.75;;;2.90;;
49376;SDS011;35253;34.688;33.040;2023-05-07T09:26:23;16.33;;;7.35;;
49376;SDS011;35253;34.688;33.040;2023-05-07T09:31:16;14.80;;;4.32;;
49376;SDS011;35253;34.688;33.040;2023-05-07T09:33:42;8.35;;;4.43;;
49376;SDS011;35253;34.688;33.040;2023-05-07T09:36:08;11.75;;;3.55;;
49376;SDS011;35253;34.688;33.040;2023-05-07T09:38:35;12.73;;;4.25;;
49376;SDS011;35253;34.688;33.040;2023-05-07T09:41:03;11.88;;;5.72;;
49376;SDS011;35253;34.688;33.040;2023-05-07T09:43:32;6.70;;;3.20;;
49376;SDS011;35253;34.688;33.040;2023-05-07T09:46:07;6.70;;;2.63;;
49376;SDS011;35253;34.688;33.040;2023-05-07T09:48:40;8.55;;;3.53;;
49376;SDS011;35253;34.688;33.040;2023-05-07T09:51:28;6.88;;;3.00;;
49376;SDS011;35253;34.688;33.040;2023-05-07T09:54:01;12.52;;;3.30;;
49376;SDS011;35253;34.688;33.040;2023-05-07T09:56:30;11.10;;;4.45;;
49376;SDS011;35253;34.688;33.040;2023-05-07T09:59:06;11.82;;;3.50;;
49376;SDS011;35253;34.688;33.040;2023-05-07T10:01:33;6.57;;;4.00;;
49376;SDS011;35253;34.688;33.040;2023-05-07T10:04:02;8.65;;;5.10;;
49376;SDS011;35253;34.688;33.040;2023-05-07T10:06:34;12.30;;;4.82;;
49376;SDS011;35253;34.688;33.040;2023-05-07T10:09:00;9.70;;;5.13;;
49376;SDS011;35253;34.688;33.040;2023-05-07T10:11:28;8.82;;;4.50;;
49376;SDS011;35253;34.688;33.040;2023-05-07T10:13:55;5.53;;;3.55;;
49376;SDS011;35253;34.688;33.040;2023-05-07T10:16:21;10.18;;;2.72;;
49376;SDS011;35253;34.688;33.040;2023-05-07T10:18:48;22.98;;;8.57;;
49376;SDS011;35253;34.688;33.040;2023-05-07T10:21:22;15.93;;;7.50;;
49376;SDS011;35253;34.688;33.040;2023-05-07T10:23:49;11.80;;;5.10;;
49376;SDS011;35253;34.688;33.040;2023-05-07T10:26:17;13.30;;;5.18;;
49376;SDS011;35253;34.688;33.040;2023-05-07T10:28:47;7.60;;;3.25;;
49376;SDS011;35253;34.688;33.040;2023-05-07T10:31:30;6.18;;;3.97;;
49376;SDS011;35253;34.688;33.040;2023-05-07T10:34:10;12.30;;;3.45;;
49376;SDS011;35253;34.688;33.040;2023-05-07T10:36:39;7.63;;;2.88;;
49376;SDS011;35253;34.688;33.040;2023-05-07T10:39:05;7.38;;;3.88;;
49376;SDS011;35253;34.688;33.040;2023-05-07T10:41:31;13.48;;;6.22;;
49376;SDS011;35253;34.688;33.040;2023-05-07T10:43:57;14.32;;;6.88;;
49376;SDS011;35253;34.688;33.040;2023-05-07T10:46:26;18.40;;;5.97;;
49376;SDS011;35253;34.688;33.040;2023-05-07T10:51:28;8.98;;;4.32;;
49376;SDS011;35253;34.688;33.040;2023-05-07T10:56:42;14.27;;;7.95;;
49376;SDS011;35253;34.688;33.040;2023-05-07T10:59:50;8.02;;;4.45;;
49376;SDS011;35253;34.688;33.040;2023-05-07T11:01:59;11.80;;;5.93;;
49376;SDS011;35253;34.688;33.040;2023-05-07T11:04:31;11.13;;;6.57;;
49376;SDS011;35253;34.688;33.040;2023-05-07T11:15:03;6.88;;;3.38;;
49376;SDS011;35253;34.688;33.040;2023-05-07T11:17:29;11.48;;;4.80;;
49376;SDS011;35253;34.688;33.040;2023-05-07T11:25:01;17.90;;;11.02;;
49376;SDS011;35253;34.688;33.040;2023-05-07T11:27:28;11.80;;;4.65;;
49376;SDS011;35253;34.688;33.040;2023-05-07T11:29:55;7.78;;;4.75;;
49376;SDS011;35253;34.688;33.040;2023-05-07T11:32:24;13.00;;;7.38;;
49376;SDS011;35253;34.688;33.040;2023-05-07T11:34:52;7.90;;;3.60;;
49376;SDS011;35253;34.688;33.040;2023-05-07T11:37:18;8.05;;;3.15;;
49376;SDS011;35253;34.688;33.040;2023-05-07T11:39:45;6.95;;;4.10;;
49376;SDS011;35253;34.688;33.040;2023-05-07T11:44:56;13.32;;;4.82;;
49376;SDS011;35253;34.688;33.040;2023-05-07T11:47:22;13.43;;;5.10;;
49376;SDS011;35253;34.688;33.040;2023-05-07T11:49:49;16.20;;;6.25;;
49376;SDS011;35253;34.688;33.040;2023-05-07T11:52:16;8.05;;;4.28;;
49376;SDS011;35253;34.688;33.040;2023-05-07T11:54:50;10.40;;;4.35;;
49376;SDS011;35253;34.688;33.040;2023-05-07T11:57:20;9.07;;;3.42;;
49376;SDS011;35253;34.688;33.040;2023-05-07T11:59:47;8.73;;;4.20;;
49376;SDS011;35253;34.688;33.040;2023-05-07T12:02:13;12.57;;;4.93;;
49376;SDS011;35253;34.688;33.040;2023-05-07T12:04:40;14.65;;;5.65;;
49376;SDS011;35253;34.688;33.040;2023-05-07T12:07:16;10.63;;;6.57;;
49376;SDS011;35253;34.688;33.040;2023-05-07T12:09:43;9.80;;;5.20;;
49376;SDS011;35253;34.688;33.040;2023-05-07T12:12:10;21.92;;;11.15;;
49376;SDS011;35253;34.688;33.040;2023-05-07T12:14:39;15.70;;;5.30;;
49376;SDS011;35253;34.688;33.040;2023-05-07T12:17:10;9.65;;;4.82;;
49376;SDS011;35253;34.688;33.040;2023-05-07T12:19:36;12.35;;;5.80;;
49376;SDS011;35253;34.688;33.040;2023-05-07T12:22:04;16.05;;;7.55;;
49376;SDS011;35253;34.688;33.040;2023-05-07T12:27:14;15.05;;;8.35;;
49376;SDS011;35253;34.688;33.040;2023-05-07T12:29:46;16.75;;;6.55;;
49376;SDS011;35253;34.688;33.040;2023-05-07T12:32:14;10.48;;;4.57;;
49376;SDS011;35253;34.688;33.040;2023-05-07T12:34:41;8.23;;;4.57;;
49376;SDS011;35253;34.688;33.040;2023-05-07T12:37:07;10.13;;;5.05;;
49376;SDS011;35253;34.688;33.040;2023-05-07T12:39:32;17.67;;;6.68;;
49376;SDS011;35253;34.688;33.040;2023-05-07T12:41:58;13.43;;;6.65;;
49376;SDS011;35253;34.688;33.040;2023-05-07T12:44:25;14.07;;;5.82;;
49376;SDS011;35253;34.688;33.040;2023-05-07T12:46:55;9.80;;;5.72;;
49376;SDS011;35253;34.688;33.040;2023-05-07T12:49:21;17.90;;;8.55;;
49376;SDS011;35253;34.688;33.040;2023-05-07T12:51:49;14.10;;;5.03;;
49376;SDS011;35253;34.688;33.040;2023-05-07T12:54:35;14.35;;;6.85;;
49376;SDS011;35253;34.688;33.040;2023-05-07T12:57:04;11.60;;;6.93;;
49376;SDS011;35253;34.688;33.040;2023-05-07T12:59:35;13.70;;;5.90;;
49376;SDS011;35253;34.688;33.040;2023-05-07T13:02:02;12.23;;;6.38;;
49376;SDS011;35253;34.688;33.040;2023-05-07T13:04:28;12.77;;;7.25;;
49376;SDS011;35253;34.688;33.040;2023-05-07T13:06:54;12.68;;;6.47;;
49376;SDS011;35253;34.688;33.040;2023-05-07T13:09:20;12.23;;;5.60;;
49376;SDS011;35253;34.688;33.040;2023-05-07T13:11:45;14.38;;;5.80;;
49376;SDS011;35253;34.688;33.040;2023-05-07T13:14:11;19.25;;;6.80;;
49376;SDS011;35253;34.688;33.040;2023-05-07T13:16:37;12.05;;;6.82;;
49376;SDS011;35253;34.688;33.040;2023-05-07T13:19:03;10.82;;;7.40;;
49376;SDS011;35253;34.688;33.040;2023-05-07T13:21:29;14.05;;;7.38;;
49376;SDS011;35253;34.688;33.040;2023-05-07T13:23:57;12.13;;;6.85;;
49376;SDS011;35253;34.688;33.040;2023-05-07T13:26:23;12.45;;;5.57;;
49376;SDS011;35253;34.688;33.040;2023-05-07T13:28:49;11.48;;;6.47;;
49376;SDS011;35253;34.688;33.040;2023-05-07T13:31:16;13.80;;;7.15;;
49376;SDS011;35253;34.688;33.040;2023-05-07T13:36:11;15.70;;;7.47;;
49376;SDS011;35253;34.688;33.040;2023-05-07T13:38:37;9.98;;;6.00;;
49376;SDS011;35253;34.688;33.040;2023-05-07T13:41:04;16.73;;;7.53;;
49376;SDS011;35253;34.688;33.040;2023-05-07T13:43:30;15.20;;;8.40;;
49376;SDS011;35253;34.688;33.040;2023-05-07T13:45:56;13.75;;;5.38;;
49376;SDS011;35253;34.688;33.040;2023-05-07T13:48:22;9.65;;;5.97;;
49376;SDS011;35253;34.688;33.040;2023-05-07T13:50:48;11.70;;;5.82;;
49376;SDS011;35253;34.688;33.040;2023-05-07T13:53:14;15.27;;;5.90;;
49376;SDS011;35253;34.688;33.040;2023-05-07T13:55:43;10.63;;;6.18;;
49376;SDS011;35253;34.688;33.040;2023-05-07T13:58:08;12.10;;;5.63;;
49376;SDS011;35253;34.688;33.040;2023-05-07T14:00:34;8.85;;;5.60;;
49376;SDS011;35253;34.688;33.040;2023-05-07T14:03:00;14.27;;;7.05;;
49376;SDS011;35253;34.688;33.040;2023-05-07T14:05:26;12.75;;;6.55;;
49376;SDS011;35253;34.688;33.040;2023-05-07T14:07:53;13.65;;;7.25;;
49376;SDS011;35253;34.688;33.040;2023-05-07T14:10:20;16.52;;;6.90;;
49376;SDS011;35253;34.688;33.040;2023-05-07T14:12:46;12.15;;;6.25;;
49376;SDS011;35253;34.688;33.040;2023-05-07T14:15:12;21.73;;;9.80;;
49376;SDS011;35253;34.688;33.040;2023-05-07T14:17:38;11.30;;;6.72;;
49376;SDS011;35253;34.688;33.040;2023-05-07T14:20:04;16.58;;;6.55;;
49376;SDS011;35253;34.688;33.040;2023-05-07T14:22:32;13.25;;;5.82;;
49376;SDS011;35253;34.688;33.040;2023-05-07T14:24:57;12.98;;;5.57;;
49376;SDS011;35253;34.688;33.040;2023-05-07T14:27:23;14.27;;;6.53;;
49376;SDS011;35253;34.688;33.040;2023-05-07T14:29:49;11.43;;;5.72;;
49376;SDS011;35253;34.688;33.040;2023-05-07T14:32:19;15.40;;;6.90;;
49376;SDS011;35253;34.688;33.040;2023-05-07T14:34:46;13.43;;;6.93;;
49376;SDS011;35253;34.688;33.040;2023-05-07T14:37:11;12.93;;;5.28;;
49376;SDS011;35253;34.688;33.040;2023-05-07T14:39:38;16.67;;;8.98;;
49376;SDS011;35253;34.688;33.040;2023-05-07T14:42:03;20.20;;;9.48;;
49376;SDS011;35253;34.688;33.040;2023-05-07T14:44:29;12.68;;;6.15;;
49376;SDS011;35253;34.688;33.040;2023-05-07T14:46:56;16.20;;;6.50;;
49376;SDS011;35253;34.688;33.040;2023-05-07T14:49:22;20.33;;;7.70;;
49376;SDS011;35253;34.688;33.040;2023-05-07T14:51:48;15.77;;;6.03;;
49376;SDS011;35253;34.688;33.040;2023-05-07T14:54:14;17.27;;;8.52;;